Time;durP1;ratioP1;P1;durP2;ratioP2;P2;SDS_P1;SDS_P2;PMS_P1;PMS_P2;Temp;Humidity;BMP_temperature;BMP_pressure;BME280_temperature;BME280_humidity;BME280_pressure;Samples;Min_cycle;Max_cycle;Signal;HPM_P1;HPM_P2
2023/12/06 04:48:16;;;;;;;27.87;12.45;;;;;;;-0.24;100.00;100104.38;6225035;27;21123;-85
2023/12/06 04:51:19;;;;;;;24.60;11.75;;;;;;;-0.31;100.00;100100.50;5367505;33;34953;-85
2023/12/06 04:54:25;;;;;;;29.73;13.52;;;;;;;-0.24;100.00;100094.63;5372912;33;286123;-86
2023/12/06 04:57:28;;;;;;;24.10;11.80;;;;;;;-0.18;100.00;100101.25;5367988;33;33786;-85
2023/12/06 05:00:31;;;;;;;30.67;12.68;;;;;;;-0.14;100.00;100104.53;5367509;33;34138;-86
2023/12/06 05:03:34;;;;;;;24.15;12.13;;;;;;;-0.24;100.00;100099.06;5367453;33;33907;-86
2023/12/06 05:06:38;;;;;;;23.65;12.40;;;;;;;-0.17;100.00;100094.19;5367814;33;33872;-86
2023/12/06 05:09:41;;;;;;;27.15;12.13;;;;;;;-0.14;100.00;100093.94;5367718;33;33623;-86
2023/12/06 05:12:44;;;;;;;36.38;13.27;;;;;;;-0.11;100.00;100089.25;5380874;33;35474;-86
2023/12/06 05:15:47;;;;;;;24.48;12.02;;;;;;;-0.13;100.00;100085.88;5371758;33;34770;-86
2023/12/06 05:18:50;;;;;;;26.62;13.05;;;;;;;-0.04;100.00;100097.56;5380960;33;35259;-86
2023/12/06 05:21:54;;;;;;;27.98;12.95;;;;;;;-0.24;100.00;100091.13;5388920;33;152915;-86
2023/12/06 05:24:57;;;;;;;27.58;12.85;;;;;;;-0.22;100.00;100086.59;5371499;33;34515;-86
2023/12/06 05:28:00;;;;;;;31.02;12.93;;;;;;;-0.19;100.00;100086.34;5381419;33;35221;-86
2023/12/06 05:31:03;;;;;;;28.92;13.02;;;;;;;-0.20;100.00;100086.47;5380680;33;33778;-86
2023/12/06 05:34:07;;;;;;;28.95;11.95;;;;;;;-0.13;100.00;100092.97;5381382;33;34104;-86
2023/12/06 05:37:10;;;;;;;25.27;12.20;;;;;;;-0.24;100.00;100091.97;5395211;33;35264;-89
2023/12/06 05:40:14;;;;;;;28.80;13.23;;;;;;;-0.28;100.00;100101.13;5393735;33;45627;-90
2023/12/06 05:43:17;;;;;;;24.83;12.07;;;;;;;-0.20;100.00;100105.84;5377754;33;34314;-90
2023/12/06 05:46:20;;;;;;;26.60;12.95;;;;;;;-0.19;100.00;100110.16;5373261;33;33912;-87
2023/12/06 05:49:23;;;;;;;29.05;13.70;;;;;;;-0.22;100.00;100107.75;5351753;33;296158;-86
2023/12/06 05:52:27;;;;;;;23.92;12.23;;;;;;;-0.09;100.00;100099.72;5370398;33;34138;-86
2023/12/06 05:55:30;;;;;;;27.35;12.23;;;;;;;-0.05;100.00;100102.03;5360027;33;34700;-86
2023/12/06 05:58:33;;;;;;;24.10;12.13;;;;;;;-0.13;100.00;100104.41;5384948;33;34624;-87
2023/12/06 06:01:36;;;;;;;31.77;12.57;;;;;;;-0.06;100.00;100100.34;5380916;33;33512;-86
2023/12/06 06:04:39;;;;;;;30.52;13.15;;;;;;;-0.09;100.00;100094.44;5363869;33;111472;-87
2023/12/06 06:07:43;;;;;;;31.37;14.02;;;;;;;-0.08;100.00;100083.75;5366752;33;34999;-86
2023/12/06 06:10:46;;;;;;;25.48;11.98;;;;;;;-0.06;100.00;100080.97;5355085;33;34655;-87
2023/12/06 06:13:50;;;;;;;23.95;11.55;;;;;;;0.01;100.00;100076.91;5354820;33;33539;-87
2023/12/06 06:16:53;;;;;;;27.33;12.63;;;;;;;-0.05;100.00;100082.66;5354711;33;33772;-87
2023/12/06 06:19:56;;;;;;;23.17;11.32;;;;;;;-0.09;100.00;100081.19;5342948;33;34143;-87
2023/12/06 06:22:59;;;;;;;24.40;12.00;;;;;;;-0.09;100.00;100084.72;5354758;33;35009;-87
2023/12/06 06:26:03;;;;;;;24.25;12.52;;;;;;;-0.06;100.00;100089.75;5367400;33;33405;-86
2023/12/06 06:29:08;;;;;;;25.50;12.27;;;;;;;-0.10;100.00;100090.09;5355347;33;34560;-86
2023/12/06 06:32:11;;;;;;;23.67;11.38;;;;;;;-0.05;100.00;100096.72;5368179;33;34772;-86
2023/12/06 06:35:14;;;;;;;26.27;13.10;;;;;;;-0.04;100.00;100100.22;5353704;33;34622;-86
2023/12/06 06:38:18;;;;;;;28.50;12.18;;;;;;;0.03;100.00;100103.22;5366026;33;33946;-86
2023/12/06 06:41:24;;;;;;;23.83;12.63;;;;;;;-0.01;100.00;100100.81;5367521;33;35024;-86
2023/12/06 06:44:30;;;;;;;22.75;11.93;;;;;;;0.02;100.00;100099.75;5369995;33;33786;-87
2023/12/06 06:47:34;;;;;;;24.95;12.23;;;;;;;-0.01;100.00;100111.41;5354497;33;34105;-87
2023/12/06 06:50:37;;;;;;;29.50;12.88;;;;;;;-0.01;100.00;100105.28;5358776;33;34556;-86
2023/12/06 06:53:40;;;;;;;25.77;12.00;;;;;;;-0.10;100.00;100108.63;5350576;33;33861;-86
2023/12/06 06:56:43;;;;;;;27.55;12.02;;;;;;;-0.01;100.00;100113.22;5386010;33;34395;-87
2023/12/06 06:59:46;;;;;;;27.27;13.27;;;;;;;-0.01;100.00;100115.88;5377605;33;35294;-86
2023/12/06 07:02:49;;;;;;;29.30;13.07;;;;;;;-0.02;100.00;100114.19;5375695;33;34110;-86
2023/12/06 07:05:52;;;;;;;24.75;11.98;;;;;;;-0.02;100.00;100111.53;5352911;33;34561;-87
2023/12/06 07:08:55;;;;;;;25.08;12.30;;;;;;;-0.01;100.00;100115.88;5343975;33;33497;-86
2023/12/06 07:11:59;;;;;;;27.83;12.68;;;;;;;0.06;100.00;100106.50;5360086;33;33897;-87
2023/12/06 07:15:02;;;;;;;24.80;12.13;;;;;;;0.15;100.00;100113.75;5349627;33;32849;-86
2023/12/06 07:18:05;;;;;;;26.33;12.85;;;;;;;0.20;100.00;100116.03;5360537;33;34627;-87
2023/12/06 07:21:08;;;;;;;27.10;13.27;;;;;;;0.21;100.00;100123.03;5351923;33;33932;-87
2023/12/06 07:24:11;;;;;;;22.27;10.40;;;;;;;0.26;100.00;100127.94;5335493;33;33599;-87
2023/12/06 07:27:15;;;;;;;25.75;12.02;;;;;;;0.33;100.00;100123.88;5349634;33;33932;-86
2023/12/06 07:30:18;;;;;;;23.38;11.25;;;;;;;0.28;100.00;100118.09;5365216;33;34409;-86
2023/12/06 07:33:21;;;;;;;24.73;11.98;;;;;;;0.32;100.00;100123.03;5351551;33;32579;-87
2023/12/06 07:36:24;;;;;;;18.98;10.98;;;;;;;0.36;100.00;100128.94;5343849;33;32413;-87
2023/12/06 07:39:28;;;;;;;22.62;11.27;;;;;;;0.36;100.00;100128.94;5360369;33;33513;-87
2023/12/06 07:42:31;;;;;;;24.25;10.98;;;;;;;0.41;100.00;100127.63;5361056;33;33837;-87
2023/12/06 07:45:33;;;;;;;23.23;12.20;;;;;;;0.45;100.00;100131.72;5354325;33;33670;-86
2023/12/06 07:48:36;;;;;;;26.52;11.98;;;;;;;0.49;100.00;100129.66;5357775;33;35056;-87
2023/12/06 07:51:39;;;;;;;21.75;11.18;;;;;;;0.50;100.00;100127.84;5361899;33;34576;-90
2023/12/06 07:54:43;;;;;;;24.12;11.43;;;;;;;0.46;100.00;100124.59;5374434;33;35423;-92
2023/12/06 07:57:46;;;;;;;22.55;11.32;;;;;;;0.50;100.00;100123.41;5380727;33;33735;-91
2023/12/06 08:00:49;;;;;;;25.27;11.70;;;;;;;0.54;100.00;100124.00;5354368;33;34642;-87
2023/12/06 08:03:53;;;;;;;24.63;11.52;;;;;;;0.65;100.00;100135.44;5353139;33;33625;-88
2023/12/06 08:06:55;;;;;;;22.70;10.75;;;;;;;0.68;100.00;100134.38;5354644;33;33776;-87
2023/12/06 08:10:00;;;;;;;24.30;11.73;;;;;;;0.61;100.00;100135.78;5354784;33;33844;-87
2023/12/06 08:13:03;;;;;;;26.65;12.37;;;;;;;0.69;100.00;100133.41;5343181;33;33839;-87
2023/12/06 08:16:07;;;;;;;25.67;11.43;;;;;;;0.89;100.00;100131.84;5349836;33;34644;-87
2023/12/06 08:19:09;;;;;;;24.85;12.25;;;;;;;1.02;100.00;100123.72;5349254;33;33556;-87
2023/12/06 08:22:12;;;;;;;25.60;12.18;;;;;;;1.23;100.00;100132.63;5349012;33;33775;-87
2023/12/06 08:25:16;;;;;;;26.27;12.20;;;;;;;1.24;100.00;100125.50;5337343;33;33799;-87
2023/12/06 08:28:20;;;;;;;25.10;12.57;;;;;;;1.36;100.00;100124.50;5338645;33;33777;-87
2023/12/06 08:31:23;;;;;;;28.48;13.00;;;;;;;1.28;100.00;100129.59;5380819;33;34819;-87
2023/12/06 08:34:27;;;;;;;27.13;13.88;;;;;;;1.32;100.00;100133.69;5370366;33;34287;-87
2023/12/06 08:37:30;;;;;;;35.85;14.35;;;;;;;1.25;100.00;100135.13;5368945;33;33878;-87
2023/12/06 08:40:33;;;;;;;30.50;13.32;;;;;;;1.29;100.00;100128.63;5380414;33;34406;-87
2023/12/06 08:43:37;;;;;;;26.17;12.75;;;;;;;1.33;100.00;100128.25;5363294;33;34903;-87
2023/12/06 08:46:42;;;;;;;26.00;12.88;;;;;;;1.24;100.00;100118.41;5355038;33;33828;-87
2023/12/06 08:49:45;;;;;;;25.05;11.27;;;;;;;1.27;100.00;100127.91;5338104;33;33701;-87
2023/12/06 08:52:48;;;;;;;24.83;11.80;;;;;;;1.28;100.00;100132.25;5363048;33;34386;-87
2023/12/06 08:55:51;;;;;;;24.37;11.93;;;;;;;1.25;100.00;100133.31;5360708;33;34976;-87
2023/12/06 08:58:54;;;;;;;23.92;11.88;;;;;;;1.28;100.00;100134.88;5360098;33;34420;-87
2023/12/06 09:01:57;;;;;;;23.90;12.13;;;;;;;1.40;100.00;100127.75;5379776;33;33502;-87
2023/12/06 09:05:00;;;;;;;21.12;10.70;;;;;;;1.44;100.00;100124.72;5343531;33;33385;-87
2023/12/06 09:08:03;;;;;;;26.73;11.88;;;;;;;1.53;100.00;100121.31;5354362;33;33882;-85
2023/12/06 09:11:07;;;;;;;24.45;11.12;;;;;;;1.50;100.00;100126.88;5368128;33;33826;-85
2023/12/06 09:14:10;;;;;;;20.65;9.57;;;;;;;1.50;100.00;100128.69;5365725;33;33994;-85
2023/12/06 09:17:13;;;;;;;24.10;11.18;;;;;;;1.45;100.00;100129.06;5356215;33;33765;-86
2023/12/06 09:20:17;;;;;;;22.73;12.30;;;;;;;1.53;100.00;100125.78;5337229;33;33821;-87
2023/12/06 09:23:20;;;;;;;20.80;10.68;;;;;;;1.62;100.00;100116.22;5355553;33;33788;-90
2023/12/06 09:26:24;;;;;;;22.62;11.00;;;;;;;1.61;100.00;100117.19;5390426;27;33842;-89
2023/12/06 09:29:27;;;;;;;26.37;12.23;;;;;;;1.53;100.00;100117.81;5353462;33;33956;-86
2023/12/06 09:32:30;;;;;;;22.37;11.77;;;;;;;1.64;100.00;100120.44;5370773;33;34974;-86
2023/12/06 09:35:33;;;;;;;24.75;11.75;;;;;;;1.54;100.00;100117.69;5371283;33;32932;-87
2023/12/06 09:38:36;;;;;;;22.90;11.75;;;;;;;1.70;100.00;100114.63;5365421;33;34313;-89
2023/12/06 09:41:39;;;;;;;23.58;11.43;;;;;;;1.91;100.00;100117.28;5352855;33;33491;-89
2023/12/06 09:44:42;;;;;;;23.65;10.77;;;;;;;2.04;100.00;100115.28;5353675;33;33721;-86
2023/12/06 09:47:48;;;;;;;23.42;11.15;;;;;;;2.07;100.00;100123.97;5372011;33;34722;-87
2023/12/06 09:50:52;;;;;;;21.33;10.80;;;;;;;2.11;100.00;100109.47;5373933;33;36195;-86
2023/12/06 09:53:55;;;;;;;21.27;10.75;;;;;;;2.14;100.00;100106.56;5364711;33;33643;-88
2023/12/06 09:56:58;;;;;;;25.10;11.20;;;;;;;2.02;100.00;100111.94;5361299;33;34168;-87
2023/12/06 10:00:02;;;;;;;21.52;10.98;;;;;;;2.09;100.00;100108.75;5351710;33;34163;-87
2023/12/06 10:03:14;;;;;;;23.42;10.35;;;;;;;2.03;100.00;100107.47;5345468;33;33657;-92
2023/12/06 10:06:41;;;;;;;21.33;10.57;;;;;;;2.12;100.00;100100.53;5324175;33;34201;-85
2023/12/06 10:09:51;;;;;;;23.00;10.13;;;;;;;2.18;100.00;100107.97;5329955;33;33719;-86
2023/12/06 10:12:58;;;;;;;25.23;9.57;;;;;;;2.16;100.00;100109.91;5322379;33;33893;-86
2023/12/06 10:16:01;;;;;;;24.23;10.23;;;;;;;2.08;100.00;100109.69;5332444;33;34070;-88
2023/12/06 10:19:05;;;;;;;22.25;11.05;;;;;;;1.96;100.00;100108.94;5310208;33;32571;-87
2023/12/06 10:22:09;;;;;;;24.15;9.95;;;;;;;1.80;100.00;100118.19;5326758;33;34302;-87
2023/12/06 10:25:12;;;;;;;19.52;10.25;;;;;;;1.66;100.00;100118.47;5321438;33;33898;-88
2023/12/06 10:28:14;;;;;;;21.35;10.27;;;;;;;1.67;100.00;100116.66;5313752;33;35005;-88
2023/12/06 10:31:18;;;;;;;23.85;10.77;;;;;;;1.76;100.00;100110.63;5336639;33;34819;-87
2023/12/06 10:34:35;;;;;;;24.48;12.05;;;;;;;1.72;100.00;100109.19;5329961;33;34783;-87
2023/12/06 10:37:41;;;;;;;24.23;10.98;;;;;;;1.65;100.00;100113.31;5361139;33;34612;-88
2023/12/06 10:40:44;;;;;;;21.77;10.85;;;;;;;1.68;100.00;100118.37;5367664;33;33599;-87
2023/12/06 10:43:49;;;;;;;24.25;13.05;;;;;;;1.72;100.00;100106.53;5368422;33;34635;-88
2023/12/06 10:46:55;;;;;;;22.02;10.15;;;;;;;1.81;100.00;100103.09;5379181;33;33042;-88
2023/12/06 10:50:11;;;;;;;23.20;11.85;;;;;;;1.52;100.00;100095.78;5359258;33;33661;-88
2023/12/06 10:53:17;;;;;;;22.02;10.10;;;;;;;1.71;100.00;100095.06;5361183;33;34269;-88
2023/12/06 10:56:21;;;;;;;25.88;10.65;;;;;;;1.76;100.00;100087.56;5363224;33;33403;-88
2023/12/06 10:59:26;;;;;;;30.35;11.63;;;;;;;1.80;100.00;100089.00;5351705;33;33873;-88
2023/12/06 11:02:30;;;;;;;26.90;13.00;;;;;;;2.02;100.00;100079.22;5355795;33;33865;-88
2023/12/06 11:05:39;;;;;;;23.17;11.95;;;;;;;1.96;100.00;100077.94;5369324;33;33791;-88
2023/12/06 11:09:08;;;;;;;24.95;12.00;;;;;;;2.00;100.00;100073.19;5387676;33;33839;-88
2023/12/06 11:12:41;;;;;;;24.55;11.35;;;;;;;2.04;100.00;100086.06;5378729;33;34141;-88
2023/12/06 11:16:09;;;;;;;23.05;11.00;;;;;;;1.98;100.00;100093.72;5374845;33;33616;-87
2023/12/06 11:19:13;;;;;;;23.10;12.07;;;;;;;1.96;100.00;100090.34;5377847;33;34018;-87
2023/12/06 11:22:23;;;;;;;23.85;10.90;;;;;;;2.02;100.00;100085.38;5370095;33;33501;-87
2023/12/06 11:25:27;;;;;;;22.83;10.55;;;;;;;2.11;100.00;100080.25;5376259;33;34306;-87
2023/12/06 11:28:38;;;;;;;25.20;11.48;;;;;;;1.99;100.00;100084.78;5380661;33;34214;-88
2023/12/06 11:31:41;;;;;;;21.65;10.32;;;;;;;2.08;100.00;100083.16;5382120;33;33840;-87
2023/12/06 11:34:55;;;;;;;21.27;10.35;;;;;;;2.09;100.00;100082.19;5366758;33;34158;-88
2023/12/06 11:38:00;;;;;;;24.77;11.38;;;;;;;2.01;100.00;100082.84;5363415;33;34408;-88
2023/12/06 11:41:17;;;;;;;21.00;9.88;;;;;;;2.07;100.00;100081.47;5330567;33;33657;-87
2023/12/06 11:44:20;;;;;;;19.62;11.07;;;;;;;2.03;100.00;100081.75;5363952;33;34605;-87
2023/12/06 11:47:26;;;;;;;24.55;11.60;;;;;;;2.17;100.00;100072.59;5352664;33;33758;-87
2023/12/06 11:50:44;;;;;;;24.85;11.23;;;;;;;2.21;100.00;100073.19;5373643;33;34014;-88
2023/12/06 11:53:50;;;;;;;24.70;12.52;;;;;;;2.00;100.00;100065.25;5370812;33;34089;-92
2023/12/06 11:57:05;;;;;;;25.50;12.18;;;;;;;2.00;100.00;100067.87;5366586;33;34192;-92
2023/12/06 12:00:09;;;;;;;27.08;10.85;;;;;;;2.05;100.00;100068.34;5357739;33;33572;-87
2023/12/06 12:03:15;;;;;;;28.15;12.93;;;;;;;2.06;100.00;100069.19;5360260;33;34507;-88
2023/12/06 12:06:19;;;;;;;22.92;10.65;;;;;;;2.06;100.00;100062.06;5361894;33;33411;-88
2023/12/06 12:09:22;;;;;;;22.45;12.10;;;;;;;2.10;100.00;100059.97;5368180;33;33798;-88
2023/12/06 12:12:36;;;;;;;22.70;11.38;;;;;;;1.94;100.00;100060.44;5350478;33;33877;-88
2023/12/06 12:15:39;;;;;;;24.30;11.93;;;;;;;1.86;100.00;100068.22;5357372;33;34028;-87
2023/12/06 12:18:42;;;;;;;25.00;12.55;;;;;;;1.84;100.00;100057.72;5344395;33;34010;-87
2023/12/06 12:21:46;;;;;;;29.95;14.20;;;;;;;1.76;100.00;100055.72;5371126;33;33852;-87
2023/12/06 12:24:52;;;;;;;33.67;14.63;;;;;;;1.87;100.00;100054.78;5343692;33;34994;-87
2023/12/06 12:27:54;;;;;;;25.85;14.45;;;;;;;1.89;100.00;100055.53;5351299;33;33884;-87
2023/12/06 12:31:06;;;;;;;26.02;13.77;;;;;;;1.98;100.00;100046.78;5341941;33;35700;-87
2023/12/06 12:34:09;;;;;;;23.70;12.15;;;;;;;1.92;100.00;100038.50;5379564;33;35247;-87
2023/12/06 12:37:13;;;;;;;26.02;13.60;;;;;;;1.97;100.00;100041.59;5362595;33;34100;-87
2023/12/06 12:40:16;;;;;;;26.92;12.85;;;;;;;2.03;100.00;100038.44;5363880;33;33549;-87
2023/12/06 12:43:20;;;;;;;26.87;12.10;;;;;;;1.86;100.00;100036.38;5356255;33;33886;-87
2023/12/06 12:46:23;;;;;;;28.33;13.68;;;;;;;1.76;100.00;100038.97;5368433;33;34947;-87
2023/12/06 12:49:26;;;;;;;23.87;12.77;;;;;;;1.79;100.00;100028.94;5346433;33;35453;-88
2023/12/06 12:52:33;;;;;;;24.37;11.65;;;;;;;1.78;100.00;100029.91;5359794;33;34927;-88
2023/12/06 12:55:36;;;;;;;25.50;12.02;;;;;;;1.68;100.00;100031.66;5339694;33;33886;-87
2023/12/06 12:58:39;;;;;;;24.35;11.77;;;;;;;1.66;100.00;100030.09;5354141;33;33503;-87
2023/12/06 13:01:42;;;;;;;21.00;10.75;;;;;;;1.72;100.00;100034.88;5354260;33;33688;-87
2023/12/06 13:04:46;;;;;;;20.77;10.27;;;;;;;1.66;100.00;100033.56;5352871;33;33686;-87
2023/12/06 13:07:58;;;;;;;29.27;12.57;;;;;;;1.70;100.00;100028.88;5364350;33;33472;-87
2023/12/06 13:11:01;;;;;;;21.98;11.25;;;;;;;1.67;100.00;100029.09;5367157;33;34020;-87
2023/12/06 13:14:04;;;;;;;21.73;11.70;;;;;;;1.64;100.00;100026.72;5370473;33;33480;-87
2023/12/06 13:17:07;;;;;;;23.83;11.10;;;;;;;1.63;100.00;100025.03;5368436;33;34964;-87
2023/12/06 13:20:10;;;;;;;23.10;11.18;;;;;;;1.60;100.00;100026.13;5369790;33;34723;-87
2023/12/06 13:23:13;;;;;;;19.77;10.43;;;;;;;1.71;100.00;100015.47;5384486;33;33885;-87
2023/12/06 13:26:18;;;;;;;19.83;9.75;;;;;;;1.73;100.00;100018.84;5368782;33;34027;-89
2023/12/06 13:29:21;;;;;;;21.23;10.82;;;;;;;1.56;100.00;100006.16;5356042;33;34701;-88
2023/12/06 13:32:24;;;;;;;18.08;9.65;;;;;;;1.52;100.00;100005.56;5367956;33;34131;-88
2023/12/06 13:35:27;;;;;;;23.70;9.60;;;;;;;1.47;100.00;100009.56;5381112;33;35357;-92
2023/12/06 13:38:31;;;;;;;20.90;10.27;;;;;;;1.46;100.00;100006.06;5367504;33;34123;-91
2023/12/06 13:41:34;;;;;;;18.52;9.63;;;;;;;1.49;100.00;100007.63;5355780;33;33963;-91
2023/12/06 13:44:38;;;;;;;22.30;9.90;;;;;;;1.56;100.00;100014.94;5353251;33;34135;-88
2023/12/06 13:47:41;;;;;;;20.10;8.82;;;;;;;1.49;100.00;100013.78;5380176;33;35575;-88
2023/12/06 13:50:44;;;;;;;19.10;8.82;;;;;;;1.47;100.00;100018.38;5351204;33;34699;-88
2023/12/06 13:53:47;;;;;;;15.55;8.27;;;;;;;1.50;100.00;100007.50;5347808;33;34760;-88
2023/12/06 13:56:50;;;;;;;17.80;9.05;;;;;;;1.42;100.00;100009.13;5325102;33;34406;-87
2023/12/06 13:59:53;;;;;;;18.87;9.35;;;;;;;1.39;100.00;100020.81;5348186;33;34018;-87
2023/12/06 14:02:56;;;;;;;22.15;9.63;;;;;;;1.44;100.00;100013.31;5348018;33;33722;-87
2023/12/06 14:06:00;;;;;;;17.87;8.60;;;;;;;1.44;100.00;100021.28;5360868;33;34358;-88
2023/12/06 14:09:05;;;;;;;16.15;8.95;;;;;;;1.46;100.00;100024.63;5336799;33;35045;-87
2023/12/06 14:12:08;;;;;;;19.25;8.82;;;;;;;1.47;100.00;100028.16;5348847;33;34731;-88
2023/12/06 14:15:12;;;;;;;15.27;9.30;;;;;;;1.49;100.00;100021.75;5336878;33;34359;-88
2023/12/06 14:18:15;;;;;;;17.48;8.80;;;;;;;1.58;100.00;100028.09;5351707;33;33831;-87
2023/12/06 14:21:18;;;;;;;17.70;9.18;;;;;;;1.46;100.00;100027.28;5379705;33;33686;-86
2023/12/06 14:24:22;;;;;;;18.45;8.73;;;;;;;1.46;100.00;100027.28;5366886;33;33854;-86
2023/12/06 14:27:25;;;;;;;16.12;9.05;;;;;;;1.38;100.00;100031.56;5353013;33;35011;-88
2023/12/06 14:30:28;;;;;;;17.10;8.45;;;;;;;1.34;100.00;100033.59;5356267;33;34039;-89
2023/12/06 14:33:31;;;;;;;15.45;8.60;;;;;;;1.35;100.00;100040.63;5371965;33;34873;-87
2023/12/06 14:36:36;;;;;;;15.52;7.68;;;;;;;1.31;100.00;100037.34;5366755;33;34704;-87
2023/12/06 14:39:39;;;;;;;15.55;7.87;;;;;;;1.42;100.00;100038.28;5351645;33;34054;-87
2023/12/06 14:42:43;;;;;;;15.43;8.10;;;;;;;1.30;100.00;100040.97;5345804;33;33762;-88
2023/12/06 14:45:47;;;;;;;17.30;8.60;;;;;;;1.24;100.00;100045.97;5343694;33;33480;-87
2023/12/06 14:48:50;;;;;;;18.92;8.57;;;;;;;1.27;100.00;100035.94;5344328;33;34599;-88
2023/12/06 14:51:53;;;;;;;14.77;8.63;;;;;;;1.28;100.00;100047.37;5355894;33;34303;-87
2023/12/06 14:54:56;;;;;;;19.95;9.27;;;;;;;1.42;100.00;100038.28;5357205;33;34580;-88
2023/12/06 14:57:59;;;;;;;17.40;7.72;;;;;;;1.31;100.00;100040.00;5354385;33;33566;-88
2023/12/06 15:01:03;;;;;;;14.75;7.47;;;;;;;1.28;100.00;100045.56;5343886;33;33520;-88
2023/12/06 15:04:06;;;;;;;21.17;9.25;;;;;;;1.20;100.00;100044.50;5370941;33;34360;-88
2023/12/06 15:07:09;;;;;;;20.02;8.88;;;;;;;1.23;100.00;100055.72;5348051;33;34279;-88
2023/12/06 15:10:12;;;;;;;21.00;8.15;;;;;;;1.17;100.00;100061.53;5366216;33;34188;-88
2023/12/06 15:13:15;;;;;;;16.92;7.95;;;;;;;1.18;100.00;100042.00;5355659;33;33933;-88
2023/12/06 15:16:19;;;;;;;13.80;8.13;;;;;;;1.20;100.00;100050.69;5375978;33;35589;-87
2023/12/06 15:19:22;;;;;;;18.52;8.43;;;;;;;1.28;100.00;100048.22;5354689;33;150006;-87
2023/12/06 15:22:43;;;;;;;17.12;8.27;;;;;;;1.24;100.00;100060.06;5359325;33;34605;-88
2023/12/06 15:25:47;;;;;;;17.08;8.55;;;;;;;1.22;100.00;100058.50;5373035;33;34096;-88
2023/12/06 15:28:49;;;;;;;19.42;9.63;;;;;;;1.18;100.00;100049.12;5356744;33;35086;-88
2023/12/06 15:31:52;;;;;;;28.15;12.57;;;;;;;1.19;100.00;100053.44;5345217;33;33765;-88
2023/12/06 15:34:55;;;;;;;26.77;11.80;;;;;;;1.25;100.00;100056.44;5356445;33;33910;-88
2023/12/06 15:37:59;;;;;;;23.67;11.32;;;;;;;1.22;100.00;100058.50;5348253;33;34971;-91
2023/12/06 15:41:03;;;;;;;23.83;10.40;;;;;;;1.24;100.00;100057.41;5339031;33;33988;-93
2023/12/06 15:44:06;;;;;;;24.05;11.50;;;;;;;1.09;100.00;100059.50;5356355;33;34081;-88
2023/12/06 15:47:09;;;;;;;18.80;9.35;;;;;;;1.21;100.00;100062.12;5353370;33;34928;-88
2023/12/06 15:50:12;;;;;;;18.80;8.68;;;;;;;1.28;100.00;100053.53;5350986;33;33581;-88
2023/12/06 15:53:15;;;;;;;13.80;7.78;;;;;;;1.31;100.00;100058.56;5334646;33;33933;-88
2023/12/06 15:56:19;;;;;;;17.42;7.90;;;;;;;1.31;100.00;100053.25;5359953;33;33626;-88
2023/12/06 15:59:22;;;;;;;16.67;8.30;;;;;;;1.19;100.00;100061.41;5347251;33;34871;-88
2023/12/06 16:02:25;;;;;;;14.75;8.00;;;;;;;1.18;100.00;100062.38;5373377;33;33891;-88
2023/12/06 16:05:29;;;;;;;16.70;9.25;;;;;;;1.29;100.00;100059.69;5365292;33;35237;-88
2023/12/06 16:08:31;;;;;;;15.52;7.78;;;;;;;1.15;100.00;100059.97;5367522;33;33907;-88
2023/12/06 16:11:34;;;;;;;14.73;8.90;;;;;;;1.24;100.00;100056.56;5366530;33;34318;-88
2023/12/06 16:14:37;;;;;;;18.30;8.52;;;;;;;1.23;100.00;100052.22;5380467;33;34651;-88
2023/12/06 16:17:41;;;;;;;15.27;8.27;;;;;;;1.15;100.00;100059.97;5367120;33;34036;-88
2023/12/06 16:20:43;;;;;;;12.40;6.75;;;;;;;1.18;100.00;100067.69;5380840;33;33821;-88
2023/12/06 16:23:47;;;;;;;12.13;7.03;;;;;;;1.15;100.00;100065.28;5367173;33;33867;-88
2023/12/06 16:26:49;;;;;;;19.48;9.18;;;;;;;1.17;100.00;100065.97;5367177;33;33592;-88
2023/12/06 16:29:53;;;;;;;17.77;7.72;;;;;;;1.11;100.00;100062.88;5355792;33;34618;-88
2023/12/06 16:32:55;;;;;;;15.48;7.80;;;;;;;1.05;100.00;100075.78;5368210;33;33685;-88
2023/12/06 16:35:59;;;;;;;18.20;8.25;;;;;;;1.04;100.00;100082.88;5367595;33;33879;-88
2023/12/06 16:39:04;;;;;;;18.02;7.37;;;;;;;0.87;100.00;100078.09;5367153;33;34393;-89
2023/12/06 16:42:07;;;;;;;15.82;8.73;;;;;;;0.90;100.00;100086.62;5355529;33;35043;-88
2023/12/06 16:45:10;;;;;;;15.82;8.23;;;;;;;0.99;100.00;100079.75;5366777;33;33828;-88
2023/12/06 16:48:13;;;;;;;12.90;7.35;;;;;;;1.08;100.00;100088.78;5367221;33;33696;-88
2023/12/06 16:51:16;;;;;;;15.90;8.30;;;;;;;1.03;100.00;100090.97;5367169;33;34967;-88
2023/12/06 16:54:22;;;;;;;18.62;8.05;;;;;;;0.99;100.00;100086.88;5367485;33;34393;-88
